M I D A S
Marine Information and Data Acquisition System
Tripno 1504 of the Zeeleeuw from 2008-06-16 07:05:14 to 2008-06-16 11:18:40
Back to CruiseResearch ActivitiesStationsMapUnderway DataData graphs

EquipmentUnitsComment
TimeDGPSUTC
LatitudeDGPSDM.mWGS84
LongitudeDGPSDM.mWGS84
HeadingGyrodeg 
SOGDGPSknotsSpeed over ground
COGDGPSdegCourse over ground
DepthEcho soundermeters200 kHz
Missing or incorrect values are displayed as -999
Navigation data collected by the RV Zeeleeuw from 2008-06-16 07:05:52 to 2008-06-16 11:28:09
                                                                                    Next 1000 lines
Time Latitude Longitude Heading SOG COG Depth
2008-06-16 07:06:02 51°13.623 2°56.047 126.4 -999 159 -999
2008-06-16 07:06:07 51°13.623 2°56.048 126.4 0.1 78 -999
2008-06-16 07:06:12 51°13.623 2°56.048 125.9 0.1 84 -999
2008-06-16 07:06:17 51°13.624 2°56.048 124.6 -999 93 -999
2008-06-16 07:06:22 51°13.624 2°56.048 123.5 -999 168 -999
2008-06-16 07:06:27 51°13.624 2°56.048 123 -999 150 -999
2008-06-16 07:06:32 51°13.624 2°56.048 122.6 -999 119 -999
2008-06-16 07:06:37 51°13.623 2°56.048 121.9 0.1 180 -999
2008-06-16 07:06:42 51°13.623 2°56.048 121.3 0.1 184 -999
2008-06-16 07:06:47 51°13.623 2°56.048 120.8 0.1 190 -999
2008-06-16 07:06:52 51°13.623 2°56.048 120 0.1 194 -999
2008-06-16 07:06:57 51°13.623 2°56.048 118.9 0.1 186 -999
2008-06-16 07:07:02 51°13.623 2°56.048 118 0.1 189 -999
2008-06-16 07:07:07 51°13.623 2°56.048 117.3 0.1 181 -999
2008-06-16 07:07:12 51°13.623 2°56.048 116.3 0.1 191 -999
2008-06-16 07:07:17 51°13.623 2°56.048 115.1 0.1 193 -999
2008-06-16 07:07:22 51°13.623 2°56.048 113.9 0.1 267 -999
2008-06-16 07:07:27 51°13.623 2°56.047 113.2 0.4 289 -999
2008-06-16 07:07:32 51°13.623 2°56.045 112.7 0.9 296 -999
2008-06-16 07:07:37 51°13.624 2°56.043 112.7 1.3 294 -999
2008-06-16 07:07:42 51°13.625 2°56.039 113.3 1.7 298 -999
2008-06-16 07:07:47 51°13.626 2°56.035 113.9 2 297 6.8
2008-06-16 07:07:52 51°13.628 2°56.031 114.1 2.4 299 -999
2008-06-16 07:07:57 51°13.63 2°56.025 114.3 2.7 298 -999
2008-06-16 07:08:02 51°13.632 2°56.02 114.1 3 299 -999
2008-06-16 07:08:07 51°13.634 2°56.013 113.9 3.3 297 -999
2008-06-16 07:08:12 51°13.636 2°56.006 113.6 3.6 298 -999
2008-06-16 07:08:17 51°13.638 2°55.999 113 3.8 296 -999
2008-06-16 07:08:22 51°13.641 2°55.991 112.2 3.9 296 -999
2008-06-16 07:08:27 51°13.643 2°55.983 111.5 4.1 294 -999
2008-06-16 07:08:32 51°13.645 2°55.974 110.8 4.2 294 -999
2008-06-16 07:08:37 51°13.647 2°55.965 110.2 4.4 292 -999
2008-06-16 07:08:42 51°13.649 2°55.956 109.9 4.5 292 -999
2008-06-16 07:08:47 51°13.65 2°55.947 109.9 4.6 291 -999
2008-06-16 07:08:52 51°13.652 2°55.937 110.1 4.8 291 -999
2008-06-16 07:08:57 51°13.655 2°55.927 110.2 5 291 -999
2008-06-16 07:09:02 51°13.658 2°55.916 110.5 5.1 290 -999
2008-06-16 07:09:07 51°13.66 2°55.906 110.3 5 291 -999
2008-06-16 07:09:12 51°13.663 2°55.896 109.5 4.8 290 -999
2008-06-16 07:09:17 51°13.665 2°55.886 108.8 4.6 290 -999
2008-06-16 07:09:22 51°13.667 2°55.877 108.2 4.5 290 -999
2008-06-16 07:09:27 51°13.67 2°55.867 107.7 4.5 290 -999
2008-06-16 07:09:32 51°13.672 2°55.858 106.9 4.3 289 -999
2008-06-16 07:09:37 51°13.674 2°55.849 105.6 4.2 288 -999
2008-06-16 07:09:42 51°13.675 2°55.841 104.4 4.1 287 -999
2008-06-16 07:09:47 51°13.677 2°55.833 103.4 3.8 286 -999
2008-06-16 07:09:52 51°13.678 2°55.825 102.1 3.7 286 -999
2008-06-16 07:09:57 51°13.68 2°55.817 100.9 3.5 285 -999
2008-06-16 07:10:02 51°13.681 2°55.81 99.6 3.3 284 -999
2008-06-16 07:10:07 51°13.682 2°55.803 98.9 3.2 284 7.9
2008-06-16 07:10:11 51°13.683 2°55.798 98 3.1 283 7.9
2008-06-16 07:10:16 51°13.684 2°55.792 97.2 2.9 283 8.2
2008-06-16 07:10:22 51°13.684 2°55.785 96.3 2.7 281 8.7
2008-06-16 07:10:26 51°13.685 2°55.781 95.2 2.4 282 9.7
2008-06-16 07:10:31 51°13.686 2°55.776 94 2.2 282 10.2
2008-06-16 07:10:36 51°13.686 2°55.772 92.7 2 282 11
2008-06-16 07:10:40 51°13.686 2°55.769 91.3 1.7 281 11.4
2008-06-16 07:10:46 51°13.687 2°55.765 89.9 1.5 284 11.5
2008-06-16 07:10:50 51°13.687 2°55.763 88.4 1.2 284 11.3
2008-06-16 07:10:55 51°13.688 2°55.761 86.5 1 288 11.1
2008-06-16 07:11:00 51°13.688 2°55.759 84.1 0.7 299 11.1
2008-06-16 07:11:05 51°13.689 2°55.759 80.9 0.4 321 11.1
2008-06-16 07:11:10 51°13.69 2°55.759 76.8 0.5 9 11.3
2008-06-16 07:11:15 51°13.691 2°55.76 72 0.8 33 11.7
2008-06-16 07:11:19 51°13.692 2°55.761 66.5 1.2 40 12.2
2008-06-16 07:11:24 51°13.693 2°55.764 60 1.5 40 12.8
2008-06-16 07:11:27 51°13.694 2°55.765 53 1 39 13.2
2008-06-16 07:11:34 51°13.697 2°55.768 45.6 1.4 27 13
2008-06-16 07:11:39 51°13.698 2°55.769 39.5 1.2 25 13.2
2008-06-16 07:11:43 51°13.699 2°55.769 35 0.7 18 13.3
2008-06-16 07:11:48 51°13.699 2°55.769 31.2 0.3 349 13.3
2008-06-16 07:11:54 51°13.699 2°55.768 26 0.4 234 13.5
2008-06-16 07:11:58 51°13.698 2°55.767 22.4 0.8 214 13.5
2008-06-16 07:12:03 51°13.697 2°55.766 19.5 1.3 209 13.6
2008-06-16 07:12:08 51°13.695 2°55.764 16.9 1.3 212 13.3
2008-06-16 07:12:14 51°13.694 2°55.763 15.4 1.1 209 4.9
2008-06-16 07:12:19 51°13.693 2°55.762 12.7 0.7 222 -999
2008-06-16 07:12:25 51°13.693 2°55.761 10 0.4 300 -999
2008-06-16 07:12:30 51°13.694 2°55.76 4.6 0.8 338 -999
2008-06-16 07:12:36 51°13.696 2°55.759 358.5 1.5 340 -999
2008-06-16 07:12:42 51°13.699 2°55.755 352.8 2.4 339 -999
2008-06-16 07:12:47 51°13.703 2°55.752 343.2 3.3 334 13.5
2008-06-16 07:12:52 51°13.709 2°55.748 337.4 3.9 332 13.7
2008-06-16 07:12:57 51°13.715 2°55.743 332.9 4.8 329 13.5
2008-06-16 07:13:02 51°13.722 2°55.737 330.6 5.5 331 13
2008-06-16 07:13:06 51°13.727 2°55.731 330.3 6.1 328 11.7
2008-06-16 07:13:11 51°13.735 2°55.724 329.8 6.6 330 10.6
2008-06-16 07:13:16 51°13.743 2°55.716 329.6 6.9 328 9.8
2008-06-16 07:13:21 51°13.752 2°55.708 329.4 7.2 329 9.7
2008-06-16 07:13:26 51°13.761 2°55.699 329.4 7.4 328 9.5
2008-06-16 07:13:31 51°13.77 2°55.691 329.1 7.6 329 9.6
2008-06-16 07:13:36 51°13.779 2°55.682 329.3 7.7 330 9.6
2008-06-16 07:13:40 51°13.787 2°55.676 330.7 7.9 331 9.3
2008-06-16 07:13:45 51°13.797 2°55.667 331.4 8 331 10.1
2008-06-16 07:13:50 51°13.807 2°55.659 331.7 8.1 333 9.5
2008-06-16 07:13:55 51°13.817 2°55.65 332.3 8.2 332 9.6
2008-06-16 07:14:00 51°13.827 2°55.643 332.6 8.3 334 9.6
2008-06-16 07:14:05 51°13.838 2°55.634 333.3 8.4 333 9.6
2008-06-16 07:14:10 51°13.848 2°55.626 333.4 8.5 334 9.6
2008-06-16 07:14:14 51°13.857 2°55.619 333.7 8.5 334 9.9
2008-06-16 07:14:19 51°13.867 2°55.611 333.9 8.6 333 10.1
2008-06-16 07:14:24 51°13.878 2°55.602 333.6 8.7 333 10.2
2008-06-16 07:14:29 51°13.889 2°55.593 333.2 8.7 333 10.2
2008-06-16 07:14:34 51°13.9 2°55.585 333.2 8.7 333 10.3
2008-06-16 07:14:38 51°13.908 2°55.578 333.4 8.8 333 10.3
2008-06-16 07:14:43 51°13.919 2°55.569 333.3 8.8 333 10.3
2008-06-16 07:14:48 51°13.93 2°55.56 333.5 8.8 334 10.3
2008-06-16 07:14:53 51°13.941 2°55.551 333.6 8.8 333 10.4
2008-06-16 07:14:58 51°13.952 2°55.543 333.9 8.8 334 10.3
2008-06-16 07:15:03 51°13.963 2°55.534 334.2 8.8 333 10.3
2008-06-16 07:15:08 51°13.974 2°55.525 333.8 8.8 333 10.3
2008-06-16 07:15:14 51°13.987 2°55.515 334 8.8 334 10.3
2008-06-16 07:15:18 51°13.996 2°55.508 334.2 8.8 334 10.3
2008-06-16 07:15:23 51°14.007 2°55.5 334.4 8.8 334 10.3
2008-06-16 07:15:28 51°14.018 2°55.491 334.3 8.8 334 10.2
2008-06-16 07:15:33 51°14.028 2°55.483 334.8 8.8 335 10.1
2008-06-16 07:15:38 51°14.04 2°55.475 335.1 8.8 334 10.1
2008-06-16 07:15:43 51°14.05 2°55.466 334.3 8.8 334 10.1
2008-06-16 07:15:48 51°14.061 2°55.457 334.1 8.8 334 10.2
2008-06-16 07:15:54 51°14.074 2°55.447 334.4 8.8 334 10.3
2008-06-16 07:15:58 51°14.083 2°55.44 334.1 8.8 333 10.2
2008-06-16 07:16:03 51°14.094 2°55.431 333.6 8.8 333 10.3
2008-06-16 07:16:08 51°14.105 2°55.422 333.5 8.8 333 -999
2008-06-16 07:16:14 51°14.118 2°55.412 333.5 8.7 333 10.1
2008-06-16 07:16:18 51°14.126 2°55.404 333.5 8.7 332 -999
2008-06-16 07:16:24 51°14.139 2°55.393 332.5 8.8 331 -999
2008-06-16 07:16:29 51°14.15 2°55.384 331.8 8.8 331 10.5
2008-06-16 07:16:34 51°14.16 2°55.374 331.5 8.9 330 10.3
2008-06-16 07:16:39 51°14.171 2°55.364 331.3 8.9 330 -999
2008-06-16 07:16:45 51°14.184 2°55.351 330.4 9 328 -999
2008-06-16 07:16:50 51°14.194 2°55.341 329.4 9.1 327 -999
2008-06-16 07:16:55 51°14.205 2°55.329 328 9.1 325 -999
2008-06-16 07:17:01 51°14.217 2°55.314 325.8 9.2 323 10.8
2008-06-16 07:17:06 51°14.227 2°55.301 323.9 9.3 321 10.4
2008-06-16 07:17:11 51°14.237 2°55.288 322.8 9.3 320 10.5
2008-06-16 07:17:16 51°14.247 2°55.274 321.4 9.4 318 10.6
2008-06-16 07:17:21 51°14.256 2°55.26 320 9.6 318 10.2
2008-06-16 07:17:26 51°14.266 2°55.245 318.6 9.6 315 10
2008-06-16 07:17:31 51°14.275 2°55.23 316.9 9.7 315 10
2008-06-16 07:17:36 51°14.284 2°55.214 315.6 9.7 312 10
2008-06-16 07:17:41 51°14.293 2°55.197 313.6 9.7 311 9.9
2008-06-16 07:17:46 51°14.302 2°55.181 311.4 9.8 310 9.8
2008-06-16 07:17:51 51°14.31 2°55.164 310.5 9.8 309 9.9
2008-06-16 07:17:55 51°14.317 2°55.151 309.8 9.8 309 9.9
2008-06-16 07:18:00 51°14.325 2°55.134 309.4 9.9 308 10.1
2008-06-16 07:18:05 51°14.333 2°55.116 308.4 10 306 10.3
2008-06-16 07:18:10 51°14.341 2°55.097 306.4 10.2 304 10.4
2008-06-16 07:18:15 51°14.348 2°55.077 303.9 10.4 300 10.6
2008-06-16 07:18:20 51°14.355 2°55.057 301.7 10.5 298 10.7
2008-06-16 07:18:25 51°14.361 2°55.035 299 10.7 294 10.2
2008-06-16 07:18:30 51°14.365 2°55.013 294.7 10.6 288 10.3
2008-06-16 07:18:34 51°14.368 2°54.995 289.7 10.7 284 9.9
2008-06-16 07:18:39 51°14.371 2°54.971 285.1 10.9 282 9.9
2008-06-16 07:18:44 51°14.374 2°54.947 282.6 11.1 279 -999
2008-06-16 07:18:49 51°14.375 2°54.922 280.5 11.3 277 10
2008-06-16 07:18:54 51°14.377 2°54.897 277.9 11.4 274 9.8
2008-06-16 07:18:59 51°14.378 2°54.871 276.3 11.5 273 9.7
2008-06-16 07:19:03 51°14.378 2°54.851 274.3 11.7 272 9.6
2008-06-16 07:19:08 51°14.379 2°54.825 273.9 11.8 273 9.9
2008-06-16 07:19:13 51°14.38 2°54.798 274.3 11.8 273 9.6
2008-06-16 07:19:18 51°14.38 2°54.772 275 11.9 272 9.6
2008-06-16 07:19:23 51°14.381 2°54.746 274.1 12 270 9.8
2008-06-16 07:19:28 51°14.38 2°54.719 271.2 12.1 267 9.8
2008-06-16 07:19:33 51°14.379 2°54.692 269.2 12.2 267 9.9
2008-06-16 07:19:38 51°14.377 2°54.664 268.3 12.4 266 10.5
2008-06-16 07:19:43 51°14.376 2°54.637 267.1 12.5 265 10.6
2008-06-16 07:19:48 51°14.374 2°54.609 265.8 12.6 265 10.5
2008-06-16 07:19:53 51°14.372 2°54.582 265.7 12.6 264 10.2
2008-06-16 07:19:58 51°14.371 2°54.554 266.4 12.6 264 9.3
2008-06-16 07:20:03 51°14.367 2°54.527 264.7 12.6 259 9.2
2008-06-16 07:20:08 51°14.363 2°54.5 260.6 12.6 256 9.1
2008-06-16 07:20:14 51°14.357 2°54.468 257.9 12.6 254 9
2008-06-16 07:20:18 51°14.353 2°54.446 255.2 12.7 252 9
2008-06-16 07:20:23 51°14.346 2°54.42 251 12.7 247 9.1
2008-06-16 07:20:28 51°14.339 2°54.394 248.1 12.7 247 9
2008-06-16 07:20:34 51°14.331 2°54.363 247.4 12.8 248 9
2008-06-16 07:20:38 51°14.325 2°54.342 247.8 12.9 245 9.1
2008-06-16 07:20:43 51°14.319 2°54.316 248 12.8 251 9.1
2008-06-16 07:20:48 51°14.312 2°54.29 249.2 12.9 247 9
2008-06-16 07:20:54 51°14.305 2°54.257 249.8 12.9 251 9
2008-06-16 07:20:58 51°14.3 2°54.236 250.3 12.8 248 9
2008-06-16 07:21:03 51°14.294 2°54.209 250.9 12.9 250 9
2008-06-16 07:21:07 51°14.289 2°54.188 251.5 12.9 250 9.1
2008-06-16 07:21:13 51°14.282 2°54.155 251.4 12.9 250 8.6
2008-06-16 07:21:18 51°14.276 2°54.128 251.6 13 251 8.6
2008-06-16 07:21:23 51°14.271 2°54.101 252 12.9 252 8.9
2008-06-16 07:21:28 51°14.265 2°54.074 251.9 13 250 8.8
2008-06-16 07:21:33 51°14.259 2°54.047 251.9 13 252 8.9
2008-06-16 07:21:38 51°14.253 2°54.02 252 13 250 8.9
2008-06-16 07:21:43 51°14.247 2°53.993 252.1 13 251 8.9
2008-06-16 07:21:48 51°14.241 2°53.966 251.8 13 250 8.9
2008-06-16 07:21:54 51°14.234 2°53.933 251.8 13 251 8.9
2008-06-16 07:21:58 51°14.229 2°53.911 251.4 13 250 9
2008-06-16 07:22:03 51°14.223 2°53.884 251.5 13.1 250 9.1
2008-06-16 07:22:08 51°14.217 2°53.857 251.4 13 250 9.1
2008-06-16 07:22:13 51°14.211 2°53.83 251.5 13 251 9.1
2008-06-16 07:22:18 51°14.205 2°53.803 251 13 250 9
2008-06-16 07:22:23 51°14.199 2°53.776 251.2 13 250 9
2008-06-16 07:22:27 51°14.194 2°53.754 251.1 13 251 9
2008-06-16 07:22:33 51°14.186 2°53.722 251 13 249 9
2008-06-16 07:22:38 51°14.181 2°53.694 251.8 13 252 9.1
2008-06-16 07:22:43 51°14.174 2°53.667 251.7 13 250 9.1
2008-06-16 07:22:48 51°14.168 2°53.64 251.4 13 251 9.1
2008-06-16 07:22:54 51°14.161 2°53.608 251.1 13 251 9.2
2008-06-16 07:22:58 51°14.156 2°53.586 251.5 13 248 9.2
2008-06-16 07:23:03 51°14.15 2°53.559 250.7 13 251 9.3
2008-06-16 07:23:07 51°14.144 2°53.538 250.7 13.1 248 9.3
2008-06-16 07:23:13 51°14.137 2°53.505 250.3 13 251 9.4
2008-06-16 07:23:18 51°14.13 2°53.479 251 13 248 9.5
2008-06-16 07:23:23 51°14.124 2°53.451 250.5 13.1 251 9.5
2008-06-16 07:23:28 51°14.118 2°53.424 251 13.1 250 9.5
2008-06-16 07:23:33 51°14.112 2°53.397 251 13.1 250 9.6
2008-06-16 07:23:38 51°14.106 2°53.37 250.8 13.1 250 9.6
2008-06-16 07:23:43 51°14.099 2°53.343 250.7 13.1 250 9.7
2008-06-16 07:23:48 51°14.093 2°53.316 251.2 13.1 249 9.7
2008-06-16 07:23:53 51°14.087 2°53.288 250.9 13.1 250 9.7
2008-06-16 07:23:58 51°14.08 2°53.261 250.9 13.1 250 9.8
2008-06-16 07:24:03 51°14.073 2°53.234 250.4 13.1 248 9.9
2008-06-16 07:24:07 51°14.069 2°53.213 250.3 13.1 249 10
2008-06-16 07:24:13 51°14.06 2°53.181 248.8 13.1 247 9.9
2008-06-16 07:24:18 51°14.053 2°53.154 248.4 13 248 10.1
2008-06-16 07:24:23 51°14.045 2°53.128 248 13.1 244 10
2008-06-16 07:24:28 51°14.039 2°53.101 247.3 13.1 249 10
2008-06-16 07:24:34 51°14.03 2°53.069 247.8 13.1 246 10.1
2008-06-16 07:24:38 51°14.025 2°53.048 248.6 13.1 249 10.1
2008-06-16 07:24:43 51°14.019 2°53.021 248.9 13.1 248 10.2
2008-06-16 07:24:48 51°14.012 2°52.994 250.4 13.1 249 10.1
2008-06-16 07:24:53 51°14.006 2°52.966 249.8 13.1 251 10.2
2008-06-16 07:24:58 51°13.999 2°52.94 250.3 13.1 247 10.2
2008-06-16 07:25:03 51°13.993 2°52.912 249.9 13.1 251 10.2
2008-06-16 07:25:08 51°13.986 2°52.885 250.4 13.2 247 10.2
2008-06-16 07:25:13 51°13.98 2°52.858 250.8 13.1 252 10.2
2008-06-16 07:25:18 51°13.973 2°52.831 250.4 13.1 247 10.3
2008-06-16 07:25:23 51°13.967 2°52.803 250.4 13.2 251 10.4
2008-06-16 07:25:28 51°13.961 2°52.776 250.9 13.2 249 10.3
2008-06-16 07:25:33 51°13.954 2°52.749 250.6 13.2 249 10.4
2008-06-16 07:25:38 51°13.948 2°52.722 250.3 13.1 250 10.5
2008-06-16 07:25:43 51°13.942 2°52.695 251.1 13.2 249 10.5
2008-06-16 07:25:48 51°13.935 2°52.667 250.3 13.2 250 10.5
2008-06-16 07:25:53 51°13.929 2°52.64 251.1 13.1 249 10.5
2008-06-16 07:25:58 51°13.923 2°52.613 250.4 13.1 252 10.6
2008-06-16 07:26:03 51°13.916 2°52.586 250.7 13.3 247 10.5
2008-06-16 07:26:07 51°13.912 2°52.563 251 13.1 253 10.6
2008-06-16 07:26:13 51°13.902 2°52.532 250 13.2 244 10.5
2008-06-16 07:26:18 51°13.897 2°52.504 248.8 13.2 251 10.6
2008-06-16 07:26:23 51°13.888 2°52.479 247.3 13.2 244 10.6
2008-06-16 07:26:28 51°13.881 2°52.452 246 13.1 246 10.7
2008-06-16 07:26:33 51°13.872 2°52.427 244.2 13.1 243 10.6
2008-06-16 07:26:38 51°13.864 2°52.401 243.9 13.1 242 10.6
2008-06-16 07:26:43 51°13.855 2°52.375 242.9 13.2 243 10.6
2008-06-16 07:26:48 51°13.846 2°52.35 242.4 13.2 241 10.8
2008-06-16 07:26:53 51°13.838 2°52.324 242.6 13.1 241 10.7
2008-06-16 07:26:58 51°13.829 2°52.299 242 13.1 242 10.6
2008-06-16 07:27:03 51°13.82 2°52.273 241.8 13.2 241 10.7
2008-06-16 07:27:08 51°13.811 2°52.248 241.1 13.2 240 10.8
2008-06-16 07:27:13 51°13.802 2°52.223 240.2 13.2 239 10.7
2008-06-16 07:27:18 51°13.792 2°52.198 239.3 13.1 239 10.7
2008-06-16 07:27:23 51°13.783 2°52.174 239 13 238 10.7
2008-06-16 07:27:28 51°13.773 2°52.149 237.6 13.1 238 10.8
2008-06-16 07:27:33 51°13.763 2°52.125 238.5 13.1 236 10.7
2008-06-16 07:27:38 51°13.753 2°52.101 237.3 13.1 238 10.7
2008-06-16 07:27:43 51°13.744 2°52.075 238.6 13.2 241 10.7
2008-06-16 07:27:48 51°13.735 2°52.05 240.1 13.2 240 10.8
2008-06-16 07:27:53 51°13.727 2°52.025 241.8 13.1 241 10.7
2008-06-16 07:27:58 51°13.718 2°51.999 241.8 13.2 243 10.8
2008-06-16 07:28:03 51°13.71 2°51.973 243.2 13.2 244 10.8
2008-06-16 07:28:07 51°13.703 2°51.953 243.3 13.2 242 10.8
2008-06-16 07:28:13 51°13.694 2°51.921 244.4 13.1 245 10.9
2008-06-16 07:28:18 51°13.685 2°51.896 244.1 13.1 243 10.8
2008-06-16 07:28:23 51°13.677 2°51.869 244.1 13.1 245 10.9
2008-06-16 07:28:28 51°13.669 2°51.843 244.9 13.2 243 10.7
2008-06-16 07:28:33 51°13.662 2°51.816 244.9 13.1 246 10.9
2008-06-16 07:28:38 51°13.653 2°51.791 245.2 13.1 242 10.9
2008-06-16 07:28:43 51°13.645 2°51.765 244.3 13.1 245 11
2008-06-16 07:28:48 51°13.636 2°51.74 243.6 13.1 239 10.9
2008-06-16 07:28:53 51°13.628 2°51.714 242.4 13.1 244 10.8
2008-06-16 07:28:58 51°13.619 2°51.689 242.6 13.1 239 10.9
2008-06-16 07:29:03 51°13.609 2°51.664 240.4 13.1 241 10.9
2008-06-16 07:29:08 51°13.6 2°51.639 240.3 13 240 11
2008-06-16 07:29:13 51°13.59 2°51.615 238.8 13.1 237 10.9
2008-06-16 07:29:18 51°13.581 2°51.59 238.3 13 240 11
2008-06-16 07:29:23 51°13.571 2°51.566 238.3 13.1 234 10.9
2008-06-16 07:29:28 51°13.562 2°51.541 238 13.1 241 11
2008-06-16 07:29:33 51°13.551 2°51.518 237.8 13 235 11
2008-06-16 07:29:38 51°13.542 2°51.493 237.4 13.1 238 11
2008-06-16 07:29:43 51°13.532 2°51.469 237.8 13.1 237 11
2008-06-16 07:29:47 51°13.524 2°51.449 238.1 13.1 238 11
2008-06-16 07:29:53 51°13.513 2°51.42 238 13.1 238 11
2008-06-16 07:29:58 51°13.503 2°51.395 237.8 13.1 237 11
2008-06-16 07:30:03 51°13.494 2°51.371 237.8 13 239 11
2008-06-16 07:30:07 51°13.485 2°51.351 237.8 13.1 237 11.1
2008-06-16 07:30:13 51°13.474 2°51.322 238.4 13.1 239 11
2008-06-16 07:30:18 51°13.465 2°51.297 238.7 13.1 237 11
2008-06-16 07:30:23 51°13.454 2°51.273 237.6 13.1 239 11.1
2008-06-16 07:30:28 51°13.445 2°51.249 238.6 13 238 11.1
2008-06-16 07:30:33 51°13.435 2°51.225 237.4 13.2 237 11
2008-06-16 07:30:38 51°13.426 2°51.2 238.7 12.9 238 11.2
2008-06-16 07:30:43 51°13.415 2°51.177 237.2 13.2 233 11
2008-06-16 07:30:48 51°13.407 2°51.151 237.8 13.1 243 11.1
2008-06-16 07:30:53 51°13.396 2°51.128 239 13 232 11.1
2008-06-16 07:30:58 51°13.387 2°51.103 236.1 13 240 11.1
2008-06-16 07:31:03 51°13.377 2°51.079 238.7 13 237 11.2
2008-06-16 07:31:08 51°13.368 2°51.054 238.7 13 238 11.2
2008-06-16 07:31:13 51°13.358 2°51.03 238.8 13.2 238 11.2
2008-06-16 07:31:18 51°13.35 2°51.004 240.6 13.1 242 11.3
2008-06-16 07:31:23 51°13.34 2°50.979 240.7 13 239 11.3
2008-06-16 07:31:28 51°13.332 2°50.954 241.4 13.1 241 11.1
2008-06-16 07:31:33 51°13.323 2°50.928 241.7 13.1 244 11.2
2008-06-16 07:31:38 51°13.314 2°50.903 242.7 13.1 239 11.1
2008-06-16 07:31:43 51°13.305 2°50.877 241.6 13.1 241 11.2
2008-06-16 07:31:48 51°13.297 2°50.852 242.3 13.1 241 11.3
2008-06-16 07:31:53 51°13.288 2°50.827 241 13.1 241 11.2
2008-06-16 07:31:58 51°13.279 2°50.802 240.7 13.1 241 11.2
2008-06-16 07:32:03 51°13.269 2°50.777 240.7 13 239 11.3
2008-06-16 07:32:07 51°13.262 2°50.757 239.5 13.1 239 11.3
2008-06-16 07:32:13 51°13.251 2°50.727 240.3 13.1 239 11.2
2008-06-16 07:32:18 51°13.242 2°50.702 239.3 13.1 241 11.3
2008-06-16 07:32:23 51°13.233 2°50.677 240.2 13.2 240 11.3
2008-06-16 07:32:28 51°13.224 2°50.651 240.9 13.2 242 11.3
2008-06-16 07:32:33 51°13.215 2°50.626 241.5 13.1 241 11.3
2008-06-16 07:32:38 51°13.207 2°50.6 242.5 13.2 241 11.3
2008-06-16 07:32:43 51°13.198 2°50.574 243 13.2 243 11.3
2008-06-16 07:32:47 51°13.192 2°50.554 243.2 13.2 241 11.3
2008-06-16 07:32:53 51°13.182 2°50.523 242.7 13.1 244 11.4
2008-06-16 07:32:58 51°13.173 2°50.498 243.3 13.2 240 11.4
2008-06-16 07:33:03 51°13.164 2°50.471 242.6 13.2 245 11.5
2008-06-16 07:33:08 51°13.156 2°50.445 243.4 13.2 242 11.3
2008-06-16 07:33:13 51°13.147 2°50.42 242.6 13.3 243 11.4
2008-06-16 07:33:18 51°13.139 2°50.394 243.7 13.1 242 11.4
2008-06-16 07:33:23 51°13.13 2°50.368 242.5 13.3 242 11.4
2008-06-16 07:33:28 51°13.122 2°50.342 243.1 13.1 245 11.5
2008-06-16 07:33:33 51°13.113 2°50.317 243.4 13.2 240 11.4
2008-06-16 07:33:38 51°13.105 2°50.29 243.2 13.2 244 11.5
2008-06-16 07:33:43 51°13.096 2°50.265 243.4 13.1 241 11.5
2008-06-16 07:33:48 51°13.088 2°50.24 242.5 13.1 241 11.5
2008-06-16 07:33:53 51°13.08 2°50.214 243 13.1 242 11.5
2008-06-16 07:33:58 51°13.071 2°50.188 242.8 13 242 11.5
2008-06-16 07:34:03 51°13.062 2°50.163 242.7 13.1 241 11.5
2008-06-16 07:34:08 51°13.054 2°50.137 242.5 13.2 243 11.5
2008-06-16 07:34:13 51°13.045 2°50.112 243.2 13.1 241 11.5
2008-06-16 07:34:18 51°13.036 2°50.087 242.3 13.1 243 11.5
2008-06-16 07:34:23 51°13.028 2°50.061 243.7 13.1 242 11.6
2008-06-16 07:34:28 51°13.019 2°50.036 242.2 13.1 240 11.6
2008-06-16 07:34:33 51°13.01 2°50.011 241.7 13 238 11.6
2008-06-16 07:34:38 51°13.001 2°49.986 240.1 13.1 241 11.6
2008-06-16 07:34:43 51°12.992 2°49.961 241 12.9 240 11.7
2008-06-16 07:34:47 51°12.984 2°49.942 239.5 13 237 11.6
2008-06-16 07:34:53 51°12.974 2°49.912 239.4 13 242 11.7
2008-06-16 07:34:58 51°12.963 2°49.888 238.8 13 236 11.6
2008-06-16 07:35:03 51°12.955 2°49.863 238.8 13 241 11.7
2008-06-16 07:35:08 51°12.945 2°49.839 239.4 13 238 11.7
2008-06-16 07:35:13 51°12.935 2°49.815 238.6 13 238 11.7
2008-06-16 07:35:18 51°12.926 2°49.79 239.8 13 237 11.6
2008-06-16 07:35:23 51°12.917 2°49.765 239 13 242 11.7
2008-06-16 07:35:28 51°12.907 2°49.741 239.1 13 235 11.7
2008-06-16 07:35:33 51°12.899 2°49.716 239.1 13 241 11.7
2008-06-16 07:35:38 51°12.889 2°49.691 239.1 13.1 238 11.8
2008-06-16 07:35:43 51°12.88 2°49.666 239.7 13 240 11.8
2008-06-16 07:35:48 51°12.871 2°49.642 239.4 13 239 11.8
2008-06-16 07:35:53 51°12.861 2°49.616 240.1 13.3 239 11.7
2008-06-16 07:35:58 51°12.853 2°49.59 241.7 13.1 243 11.8
2008-06-16 07:36:03 51°12.843 2°49.566 241.8 13.1 238 11.7
2008-06-16 07:36:08 51°12.836 2°49.539 242.1 13.2 244 11.9
2008-06-16 07:36:13 51°12.826 2°49.515 241 13.2 237 11.7
2008-06-16 07:36:18 51°12.818 2°49.489 240.8 13.1 244 11.9
2008-06-16 07:36:23 51°12.808 2°49.465 240.6 13.1 237 11.8
2008-06-16 07:36:28 51°12.799 2°49.439 239.7 13.2 242 11.7
2008-06-16 07:36:33 51°12.79 2°49.415 240.4 13.1 238 11.9
2008-06-16 07:36:38 51°12.781 2°49.389 240.1 13.1 240 11.9
2008-06-16 07:36:43 51°12.771 2°49.365 239.1 13.2 238 11.9
2008-06-16 07:36:47 51°12.765 2°49.344 240.3 13.1 241 11.9
2008-06-16 07:36:53 51°12.753 2°49.315 239.3 13.1 239 12
2008-06-16 07:36:58 51°12.744 2°49.29 240.4 13.1 239 11.9
2008-06-16 07:37:03 51°12.734 2°49.265 239.1 13.2 237 12.1
2008-06-16 07:37:07 51°12.728 2°49.244 240.4 13.1 242 12
2008-06-16 07:37:13 51°12.716 2°49.215 239.6 13.2 237 12.1
2008-06-16 07:37:18 51°12.708 2°49.189 241 13.1 241 12.1
2008-06-16 07:37:23 51°12.698 2°49.164 240.6 13.2 240 12
2008-06-16 07:37:28 51°12.69 2°49.138 241.5 13.1 243 12.1
2008-06-16 07:37:33 51°12.679 2°49.115 240.8 13.2 236 12
2008-06-16 07:37:38 51°12.672 2°49.088 240.6 13.3 244 12.1
2008-06-16 07:37:43 51°12.661 2°49.064 240.3 13.1 237 12
2008-06-16 07:37:47 51°12.654 2°49.044 239.8 13.1 241 12.2
2008-06-16 07:37:53 51°12.643 2°49.014 240.6 13.1 238 12.1
2008-06-16 07:37:58 51°12.634 2°48.989 239.6 13.1 240 12.1
2008-06-16 07:38:03 51°12.624 2°48.964 240.1 13.1 239 12.1
2008-06-16 07:38:08 51°12.615 2°48.939 239.8 13.1 240 12.1
2008-06-16 07:38:13 51°12.606 2°48.914 240.2 13.1 239 12.2
2008-06-16 07:38:18 51°12.597 2°48.889 240.6 13.2 240 12.2
2008-06-16 07:38:23 51°12.588 2°48.864 240.7 13.1 240 12.1
2008-06-16 07:38:28 51°12.579 2°48.839 241.3 13.1 241 12.1
2008-06-16 07:38:33 51°12.57 2°48.813 242.1 13.2 242 12.1
2008-06-16 07:38:38 51°12.562 2°48.787 243.4 13.1 244 12.1
2008-06-16 07:38:43 51°12.554 2°48.762 243 13.1 241 12.3
2008-06-16 07:38:47 51°12.547 2°48.741 243.4 13.2 242 12.3
2008-06-16 07:38:53 51°12.537 2°48.71 244.5 13.1 243 12.1
2008-06-16 07:38:58 51°12.528 2°48.684 243.6 13.2 242 12.2
2008-06-16 07:39:03 51°12.521 2°48.657 244.5 13.2 245 12.2
2008-06-16 07:39:07 51°12.513 2°48.638 243.6 13.1 241 12.3
2008-06-16 07:39:13 51°12.503 2°48.607 243.2 13.2 242 12.3
2008-06-16 07:39:18 51°12.494 2°48.582 242 13.2 240 12.3
2008-06-16 07:39:23 51°12.485 2°48.556 241.6 13.1 241 12.3
2008-06-16 07:39:28 51°12.476 2°48.531 240.4 13.2 239 12.3
2008-06-16 07:39:33 51°12.467 2°48.506 241.8 13.1 243 12.3
2008-06-16 07:39:38 51°12.458 2°48.482 241.6 13 239 12.5
2008-06-16 07:39:43 51°12.449 2°48.456 240.7 13.1 241 12.4
2008-06-16 07:39:47 51°12.441 2°48.436 240.6 13.2 239 12.6
2008-06-16 07:39:53 51°12.431 2°48.406 241.1 13.1 241 12.2
2008-06-16 07:39:58 51°12.421 2°48.381 240.2 13.1 239 12.3
2008-06-16 07:40:03 51°12.412 2°48.356 239.9 13.1 240 12.3
2008-06-16 07:40:08 51°12.403 2°48.332 240.2 13 239 12.4
2008-06-16 07:40:13 51°12.393 2°48.307 239.3 13.1 238 12.5
2008-06-16 07:40:18 51°12.384 2°48.282 240 13.1 240 12.4
2008-06-16 07:40:23 51°12.374 2°48.258 239.5 13 238 12.3
2008-06-16 07:40:28 51°12.365 2°48.233 239.3 13.1 239 12.5
2008-06-16 07:40:33 51°12.356 2°48.208 239.7 13.1 239 12.4
2008-06-16 07:40:38 51°12.347 2°48.183 240.1 13.1 239 12.4
2008-06-16 07:40:43 51°12.337 2°48.159 239.4 13.2 238 12.5
2008-06-16 07:40:48 51°12.328 2°48.134 240.2 13 240 12.5
2008-06-16 07:40:53 51°12.319 2°48.109 241 13.1 238 12.4
2008-06-16 07:40:58 51°12.31 2°48.083 241.5 13.1 243 12.5
2008-06-16 07:41:03 51°12.301 2°48.058 242.8 13.1 241 12.4
2008-06-16 07:41:07 51°12.294 2°48.037 242.2 13.2 241 12.5
2008-06-16 07:41:13 51°12.285 2°48.007 243.5 13 243 12.5
2008-06-16 07:41:18 51°12.276 2°47.982 243 13.2 241 12.5
2008-06-16 07:41:23 51°12.268 2°47.955 243.2 13.2 244 12.5
2008-06-16 07:41:28 51°12.259 2°47.93 243.7 13 241 12.6
2008-06-16 07:41:33 51°12.25 2°47.904 243.1 13.2 242 12.5
2008-06-16 07:41:38 51°12.243 2°47.878 244.2 13.1 244 12.5
2008-06-16 07:41:43 51°12.233 2°47.853 243.3 13.1 240 12.5
2008-06-16 07:41:47 51°12.228 2°47.832 243.8 13.1 245 12.6
2008-06-16 07:41:53 51°12.216 2°47.803 242.8 13 239 12.6
2008-06-16 07:41:58 51°12.209 2°47.776 243.4 13 245 12.6
2008-06-16 07:42:03 51°12.2 2°47.751 243.7 13 241 12.7
2008-06-16 07:42:08 51°12.192 2°47.725 244.3 13 244 12.6
2008-06-16 07:42:13 51°12.184 2°47.7 244.2 13.1 242 12.6
2008-06-16 07:42:18 51°12.176 2°47.674 243.8 13.1 244 12.6
2008-06-16 07:42:23 51°12.167 2°47.648 244.1 13.1 243 12.7
2008-06-16 07:42:28 51°12.16 2°47.622 245.3 13 247 12.7
2008-06-16 07:42:33 51°12.152 2°47.596 246.5 13.1 243 12.6
2008-06-16 07:42:38 51°12.145 2°47.569 247.5 13.2 249 12.6
2008-06-16 07:42:43 51°12.138 2°47.543 247.8 13 246 12.7
2008-06-16 07:42:48 51°12.131 2°47.516 248.4 13.1 247 12.6
2008-06-16 07:42:53 51°12.124 2°47.489 249.6 13.1 249 12.7
2008-06-16 07:42:58 51°12.118 2°47.462 250.5 13.1 250 12.7
2008-06-16 07:43:03 51°12.112 2°47.435 251.6 13.1 250 12.8
2008-06-16 07:43:08 51°12.106 2°47.407 252.5 13.1 250 12.8
2008-06-16 07:43:13 51°12.1 2°47.38 253.4 13.1 251 12.8
2008-06-16 07:43:18 51°12.093 2°47.353 252.5 13.1 248 12.7
2008-06-16 07:43:23 51°12.088 2°47.325 252.8 13.1 253 12.7
2008-06-16 07:43:28 51°12.081 2°47.299 252.2 13.1 248 12.7
2008-06-16 07:43:33 51°12.075 2°47.271 252.4 13.1 251 12.6
2008-06-16 07:43:38 51°12.068 2°47.244 251.2 13.1 249 12.8
2008-06-16 07:43:43 51°12.062 2°47.217 252.1 13.2 251 12.7
2008-06-16 07:43:47 51°12.057 2°47.195 251.3 13.1 249 12.9
2008-06-16 07:43:53 51°12.049 2°47.163 251.4 13.1 246 12.7
2008-06-16 07:43:58 51°12.043 2°47.135 251 13.2 253 12.8
2008-06-16 07:44:03 51°12.036 2°47.109 251.6 13 248 12.9
2008-06-16 07:44:08 51°12.029 2°47.082 250.3 13.1 248 12.9
2008-06-16 07:44:13 51°12.023 2°47.055 250.8 13.1 250 12.8
2008-06-16 07:44:18 51°12.015 2°47.029 249.8 13.1 247 12.8
2008-06-16 07:44:23 51°12.009 2°47.001 250.2 13.1 250 12.9
2008-06-16 07:44:28 51°12.001 2°46.976 248.7 13.1 245 12.9
2008-06-16 07:44:33 51°11.995 2°46.949 248.9 13 248 12.9
2008-06-16 07:44:38 51°11.987 2°46.923 248 13.1 244 12.9
2008-06-16 07:44:43 51°11.98 2°46.896 248.1 13.1 249 13
2008-06-16 07:44:48 51°11.972 2°46.87 248 13.1 244 13
2008-06-16 07:44:53 51°11.966 2°46.843 248.5 13.1 248 12.9
2008-06-16 07:44:58 51°11.958 2°46.817 248.5 13.1 245 13
2008-06-16 07:45:03 51°11.951 2°46.79 248.1 13.1 247 13
2008-06-16 07:45:08 51°11.943 2°46.764 248 13.1 246 13
2008-06-16 07:45:13 51°11.937 2°46.737 249.4 13.1 249 13
2008-06-16 07:45:18 51°11.929 2°46.71 249.4 13.2 247 12.9
2008-06-16 07:45:23 51°11.923 2°46.682 250.8 13.2 250 13
2008-06-16 07:45:27 51°11.917 2°46.661 250.8 13.1 247 13.1
2008-06-16 07:45:33 51°11.91 2°46.629 250.5 13.2 249 13.1
2008-06-16 07:45:38 51°11.903 2°46.601 251.6 13.2 249 13.1
2008-06-16 07:45:43 51°11.897 2°46.574 251.3 13.1 249 13.1
2008-06-16 07:45:47 51°11.891 2°46.553 250.4 13.1 247 13
2008-06-16 07:45:53 51°11.883 2°46.521 250.8 13.1 247 13.1
2008-06-16 07:45:58 51°11.875 2°46.494 249.2 13.1 246 13
2008-06-16 07:46:03 51°11.868 2°46.468 248.6 13 247 13.2
2008-06-16 07:46:08 51°11.861 2°46.442 248.9 13 246 13.1
2008-06-16 07:46:13 51°11.853 2°46.415 247.8 13.2 245 13.1
2008-06-16 07:46:18 51°11.846 2°46.389 248.7 13 246 13
2008-06-16 07:46:23 51°11.838 2°46.363 247.3 13 244 13
2008-06-16 07:46:28 51°11.831 2°46.337 248.4 13 247 13
2008-06-16 07:46:33 51°11.824 2°46.31 249.1 13.1 247 13.1
2008-06-16 07:46:38 51°11.817 2°46.283 249.4 13 247 13
2008-06-16 07:46:43 51°11.81 2°46.257 249.6 13 247 13
2008-06-16 07:46:48 51°11.803 2°46.23 249.5 13.1 248 13.1
2008-06-16 07:46:53 51°11.796 2°46.204 250.3 13 248 13
2008-06-16 07:46:58 51°11.789 2°46.177 249.5 13.2 246 13.1
2008-06-16 07:47:03 51°11.783 2°46.15 250.6 13 249 13.1
2008-06-16 07:47:08 51°11.775 2°46.124 249.6 13 245 13
2008-06-16 07:47:13 51°11.769 2°46.097 249.6 13.2 250 13.1
2008-06-16 07:47:18 51°11.761 2°46.07 250.3 13.2 246 13.1
2008-06-16 07:47:23 51°11.755 2°46.043 250.4 13.1 249 13.1
2008-06-16 07:47:28 51°11.748 2°46.017 250.4 13 247 13
2008-06-16 07:47:33 51°11.741 2°45.99 250.5 13.1 249 13
2008-06-16 07:47:38 51°11.734 2°45.963 250.4 13.2 248 13.2
2008-06-16 07:47:43 51°11.728 2°45.936 250.7 13 248 13.2
2008-06-16 07:47:48 51°11.721 2°45.91 250.1 13 247 13.1
2008-06-16 07:47:53 51°11.714 2°45.883 249.9 13.1 249 13.1
2008-06-16 07:47:58 51°11.707 2°45.856 250.6 13.1 247 13
2008-06-16 07:48:03 51°11.701 2°45.829 250.3 13 250 13.1
2008-06-16 07:48:08 51°11.693 2°45.803 250.9 13 247 13.1
2008-06-16 07:48:13 51°11.687 2°45.776 250.3 13.2 248 13
2008-06-16 07:48:18 51°11.68 2°45.749 250.8 13 249 13.1
2008-06-16 07:48:23 51°11.673 2°45.722 250.8 13 247 13.1
2008-06-16 07:48:27 51°11.668 2°45.701 251 13.1 249 13.1
2008-06-16 07:48:33 51°11.66 2°45.669 251 13 247 13
2008-06-16 07:48:38 51°11.653 2°45.642 249.9 13.1 249 13
2008-06-16 07:48:43 51°11.647 2°45.615 251.5 13 250 13.2
2008-06-16 07:48:48 51°11.639 2°45.589 250.6 13 245 13.1
2008-06-16 07:48:53 51°11.634 2°45.562 250.9 13.1 251 13.1
2008-06-16 07:48:58 51°11.627 2°45.536 251.4 13 247 13.1
2008-06-16 07:49:03 51°11.62 2°45.508 251.7 13 250 13
2008-06-16 07:49:08 51°11.614 2°45.481 252.7 13 250 12.9
2008-06-16 07:49:13 51°11.608 2°45.454 252.3 13 251 13
2008-06-16 07:49:18 51°11.601 2°45.428 252.6 13 248 13
2008-06-16 07:49:23 51°11.596 2°45.4 253.2 13 251 13.1
2008-06-16 07:49:28 51°11.589 2°45.373 253.4 13.1 250 13.1
2008-06-16 07:49:33 51°11.584 2°45.346 254.5 12.9 253 13.1
2008-06-16 07:49:38 51°11.578 2°45.319 254.1 13.1 249 13.1
2008-06-16 07:49:43 51°11.573 2°45.291 255.9 13 254 13.1
2008-06-16 07:49:48 51°11.567 2°45.264 255 13 250 13
2008-06-16 07:49:53 51°11.562 2°45.236 255.5 13.1 254 13.1
2008-06-16 07:49:58 51°11.556 2°45.209 256.6 12.9 252 13
2008-06-16 07:50:03 51°11.551 2°45.181 255.7 13.1 252 13.1
2008-06-16 07:50:08 51°11.546 2°45.154 256.5 13.1 254 13
2008-06-16 07:50:13 51°11.541 2°45.126 256.5 13 252 13.1
2008-06-16 07:50:18 51°11.535 2°45.099 255.8 13.1 253 13.1
2008-06-16 07:50:23 51°11.53 2°45.071 256.9 13 254 13
2008-06-16 07:50:27 51°11.526 2°45.049 255.8 13.1 252 13
2008-06-16 07:50:33 51°11.519 2°45.016 255.4 13.1 253 13
2008-06-16 07:50:38 51°11.513 2°44.989 254.2 13 250 13
2008-06-16 07:50:43 51°11.507 2°44.962 253.3 13 250 13.1
2008-06-16 07:50:47 51°11.502 2°44.94 253.3 13.1 250 13
2008-06-16 07:50:53 51°11.495 2°44.908 252.9 12.9 250 13.1
2008-06-16 07:50:58 51°11.487 2°44.882 251.8 13.1 247 13
2008-06-16 07:51:03 51°11.482 2°44.854 252.1 13.1 251 13
2008-06-16 07:51:08 51°11.475 2°44.827 252.5 13 249 13.1
2008-06-16 07:51:13 51°11.469 2°44.8 252.4 13.1 250 13
2008-06-16 07:51:18 51°11.464 2°44.773 253.8 13.1 252 13.1
2008-06-16 07:51:23 51°11.457 2°44.746 254.2 13 251 12.9
2008-06-16 07:51:27 51°11.453 2°44.724 253.8 13.1 251 13
2008-06-16 07:51:33 51°11.446 2°44.691 255 13 251 13
2008-06-16 07:51:38 51°11.44 2°44.664 254.7 13 251 12.9
2008-06-16 07:51:43 51°11.435 2°44.636 254.8 13.1 253 13
2008-06-16 07:51:48 51°11.43 2°44.609 255.8 12.9 253 13
2008-06-16 07:51:53 51°11.424 2°44.582 254.9 13.1 251 13
2008-06-16 07:51:58 51°11.419 2°44.554 255.5 13.1 255 13
2008-06-16 07:52:03 51°11.413 2°44.527 255.8 12.9 250 13.1
2008-06-16 07:52:08 51°11.408 2°44.499 255.1 13.1 254 13
2008-06-16 07:52:13 51°11.403 2°44.471 255.9 13.1 254 13
2008-06-16 07:52:18 51°11.397 2°44.444 256.6 12.9 251 13
2008-06-16 07:52:23 51°11.391 2°44.417 254.9 13 252 13
2008-06-16 07:52:28 51°11.386 2°44.389 255.8 13.1 254 12.9
2008-06-16 07:52:33 51°11.38 2°44.362 254.6 13 251 12.8
2008-06-16 07:52:38 51°11.375 2°44.335 254.2 13 253 12.9
2008-06-16 07:52:43 51°11.369 2°44.308 255.2 13 252 12.9
2008-06-16 07:52:47 51°11.364 2°44.286 254.1 13.1 251 12.9
2008-06-16 07:52:53 51°11.358 2°44.253 255 13 253 13
2008-06-16 07:52:58 51°11.352 2°44.226 254.8 12.9 252 13.1
2008-06-16 07:53:03 51°11.346 2°44.199 253.9 13.1 250 13
2008-06-16 07:53:08 51°11.341 2°44.171 255.3 13.1 255 13
2008-06-16 07:53:13 51°11.334 2°44.144 254.7 12.9 249 13.1
2008-06-16 07:53:18 51°11.329 2°44.117 253.7 13.1 253 13.2
2008-06-16 07:53:23 51°11.323 2°44.089 254.1 13.1 251 13
2008-06-16 07:53:28 51°11.318 2°44.062 254.7 13 252 13.1
2008-06-16 07:53:33 51°11.311 2°44.036 254.5 12.9 249 13.1
2008-06-16 07:53:38 51°11.306 2°44.008 253.6 13.2 253 13
2008-06-16 07:53:43 51°11.3 2°43.98 253.7 13.1 250 13.1
2008-06-16 07:53:48 51°11.293 2°43.954 252.2 12.9 248 13.1
2008-06-16 07:53:53 51°11.287 2°43.927 251.7 13 251 13.1
2008-06-16 07:53:58 51°11.28 2°43.901 251.1 13.2 248 13.1
2008-06-16 07:54:03 51°11.274 2°43.873 252 13.1 251 13
2008-06-16 07:54:08 51°11.268 2°43.847 251.7 13 248 13
2008-06-16 07:54:13 51°11.262 2°43.82 252.3 12.9 251 13.1
2008-06-16 07:54:18 51°11.256 2°43.792 253.8 13.2 252 13
2008-06-16 07:54:23 51°11.251 2°43.764 254.9 13.1 253 13
2008-06-16 07:54:28 51°11.245 2°43.737 254.7 12.9 252 13.1
2008-06-16 07:54:33 51°11.24 2°43.71 254.4 13.1 251 12.9
2008-06-16 07:54:38 51°11.235 2°43.682 254.7 13.2 255 13
2008-06-16 07:54:42 51°11.23 2°43.66 255.4 13 252 13.1
2008-06-16 07:54:48 51°11.224 2°43.628 254.8 12.8 252 13
2008-06-16 07:54:53 51°11.218 2°43.6 254.1 13 253 12.9
2008-06-16 07:54:58 51°11.213 2°43.572 256.6 13.1 254 13.1
2008-06-16 07:55:03 51°11.208 2°43.545 256.4 13 253 13
2008-06-16 07:55:08 51°11.204 2°43.517 256.8 12.9 255 13
2008-06-16 07:55:13 51°11.199 2°43.489 257.6 13.1 256 12.9
2008-06-16 07:55:18 51°11.194 2°43.462 258.2 13 254 13
2008-06-16 07:55:23 51°11.19 2°43.434 257.4 13 255 12.9
2008-06-16 07:55:28 51°11.186 2°43.406 258.1 13 256 13
2008-06-16 07:55:33 51°11.181 2°43.379 258.2 12.9 255 13
2008-06-16 07:55:38 51°11.177 2°43.351 258.3 13 256 13
2008-06-16 07:55:43 51°11.172 2°43.323 258.3 13 256 13
2008-06-16 07:55:48 51°11.168 2°43.295 258.2 13 256 13.1
2008-06-16 07:55:53 51°11.163 2°43.268 258.5 12.9 255 13.2
2008-06-16 07:55:58 51°11.159 2°43.24 258.5 12.9 256 13
2008-06-16 07:56:03 51°11.154 2°43.212 257.6 13.1 254 13
2008-06-16 07:56:08 51°11.15 2°43.184 258.3 13 258 13
2008-06-16 07:56:13 51°11.145 2°43.157 257.4 12.9 253 13.1
2008-06-16 07:56:18 51°11.141 2°43.129 257.5 12.9 257 13.1
2008-06-16 07:56:23 51°11.136 2°43.102 257.9 13 254 13.1
2008-06-16 07:56:28 51°11.132 2°43.074 258.1 13 256 13.1
2008-06-16 07:56:33 51°11.127 2°43.046 258 12.9 255 13.1
2008-06-16 07:56:38 51°11.123 2°43.019 257.6 12.9 255 13
2008-06-16 07:56:42 51°11.119 2°42.996 257.6 13 256 13
2008-06-16 07:56:48 51°11.114 2°42.964 257.4 12.8 255 13.1
2008-06-16 07:56:53 51°11.109 2°42.936 257.4 12.9 256 13
2008-06-16 07:56:58 51°11.104 2°42.908 257.1 13.1 256 13
2008-06-16 07:57:03 51°11.1 2°42.88 258.2 13 257 13
2008-06-16 07:57:08 51°11.095 2°42.853 257.3 12.7 253 13.1
2008-06-16 07:57:13 51°11.091 2°42.826 256.8 12.8 256 13
2008-06-16 07:57:18 51°11.086 2°42.798 256.8 13.1 255 13
2008-06-16 07:57:23 51°11.081 2°42.77 257 13.1 255 13
2008-06-16 07:57:28 51°11.076 2°42.743 256 12.8 252 13.1
2008-06-16 07:57:33 51°11.07 2°42.716 255.2 12.9 252 13.2
2008-06-16 07:57:38 51°11.065 2°42.688 255.4 13.1 254 13.1
2008-06-16 07:57:43 51°11.06 2°42.661 255.3 13 252 13
2008-06-16 07:57:48 51°11.054 2°42.634 255 12.8 253 13
2008-06-16 07:57:53 51°11.049 2°42.607 254.2 12.8 252 13
2008-06-16 07:57:58 51°11.043 2°42.58 253.8 13 253 13.1
2008-06-16 07:58:03 51°11.038 2°42.552 254.3 13.1 252 13
2008-06-16 07:58:08 51°11.033 2°42.525 254.2 12.9 253 13
2008-06-16 07:58:13 51°11.027 2°42.498 253.9 12.8 252 13
2008-06-16 07:58:18 51°11.022 2°42.471 254 12.9 252 13.1
2008-06-16 07:58:23 51°11.016 2°42.444 254.2 13 252 13
2008-06-16 07:58:28 51°11.011 2°42.416 254.7 13 254 13
2008-06-16 07:58:33 51°11.005 2°42.39 254.3 12.8 251 13.1
2008-06-16 07:58:38 51°11 2°42.363 253.6 12.9 253 13
2008-06-16 07:58:43 51°10.994 2°42.335 253.4 13.1 251 13
2008-06-16 07:58:48 51°10.989 2°42.308 253.9 12.8 252 13
2008-06-16 07:58:53 51°10.982 2°42.282 252.2 12.7 248 13
2008-06-16 07:58:58 51°10.976 2°42.255 251.7 12.9 250 13
2008-06-16 07:59:03 51°10.969 2°42.229 251 12.8 249 13
2008-06-16 07:59:08 51°10.963 2°42.202 250.1 13 248 13
2008-06-16 07:59:13 51°10.957 2°42.175 251 12.9 251 13
2008-06-16 07:59:18 51°10.95 2°42.15 251.3 12.6 247 13
2008-06-16 07:59:23 51°10.944 2°42.123 249.9 12.8 249 13
2008-06-16 07:59:28 51°10.938 2°42.096 251.2 13 250 13
2008-06-16 07:59:33 51°10.932 2°42.069 251.4 12.8 249 13.1
2008-06-16 07:59:38 51°10.926 2°42.043 250.3 12.8 250 13.1
2008-06-16 07:59:43 51°10.92 2°42.017 251.8 12.7 251 13.1
2008-06-16 07:59:48 51°10.913 2°41.99 252 12.8 249 13.1
2008-06-16 07:59:53 51°10.908 2°41.963 252 12.9 253 13.1
2008-06-16 07:59:58 51°10.902 2°41.937 252.5 12.8 249 13
2008-06-16 08:00:03 51°10.897 2°41.91 252.7 12.7 253 13
2008-06-16 08:00:08 51°10.891 2°41.883 252.8 12.7 251 13.1
2008-06-16 08:00:13 51°10.885 2°41.856 252.9 12.8 251 13.1
2008-06-16 08:00:18 51°10.88 2°41.829 253.2 12.9 252 13
2008-06-16 08:00:23 51°10.875 2°41.802 253.4 12.8 252 13.1
2008-06-16 08:00:28 51°10.869 2°41.775 253.9 12.6 252 13.1
2008-06-16 08:00:33 51°10.864 2°41.749 253.2 12.8 251 13.1
2008-06-16 08:00:38 51°10.859 2°41.721 254 12.9 254 13
2008-06-16 08:00:43 51°10.853 2°41.695 253.5 12.7 252 12.9
2008-06-16 08:00:48 51°10.848 2°41.668 253.2 12.7 252 13.1
2008-06-16 08:00:53 51°10.843 2°41.641 253.8 12.8 253 13.1
2008-06-16 08:00:58 51°10.837 2°41.614 254.2 12.8 252 13
2008-06-16 08:01:03 51°10.833 2°41.587 254.5 12.8 255 13.1
2008-06-16 08:01:08 51°10.828 2°41.56 255.8 12.7 255 13.1
2008-06-16 08:01:13 51°10.822 2°41.533 255 12.7 252 13
2008-06-16 08:01:18 51°10.818 2°41.506 254.7 12.8 255 13
2008-06-16 08:01:23 51°10.813 2°41.478 255.4 12.9 253 13
2008-06-16 08:01:28 51°10.809 2°41.451 256.1 12.8 256 13.1
2008-06-16 08:01:33 51°10.803 2°41.424 256.5 12.7 253 13
2008-06-16 08:01:38 51°10.8 2°41.397 256.5 12.8 257 13.1
2008-06-16 08:01:43 51°10.794 2°41.37 256.5 12.9 253 13
2008-06-16 08:01:48 51°10.79 2°41.342 256.4 12.8 256 13
2008-06-16 08:01:53 51°10.785 2°41.315 255.9 12.7 254 12.9
2008-06-16 08:01:58 51°10.78 2°41.289 254.8 12.7 254 13
2008-06-16 08:02:03 51°10.775 2°41.262 254.5 12.8 254 13
2008-06-16 08:02:08 51°10.77 2°41.235 253.8 12.9 252 13
2008-06-16 08:02:13 51°10.765 2°41.207 254.4 12.7 254 13
2008-06-16 08:02:18 51°10.76 2°41.181 254.3 12.7 253 13
2008-06-16 08:02:23 51°10.756 2°41.153 255.4 12.7 257 13.1
2008-06-16 08:02:28 51°10.751 2°41.126 256.1 12.8 254 13
2008-06-16 08:02:33 51°10.747 2°41.099 256.7 12.8 258 13
2008-06-16 08:02:38 51°10.742 2°41.071 257.3 12.7 256 13
2008-06-16 08:02:43 51°10.738 2°41.044 257.4 12.7 256 13.1
2008-06-16 08:02:48 51°10.734 2°41.017 256.8 12.8 256 13
2008-06-16 08:02:53 51°10.729 2°40.989 257 12.8 256 13.1
2008-06-16 08:02:58 51°10.725 2°40.962 257.4 12.8 256 13.2
2008-06-16 08:03:03 51°10.721 2°40.935 257.3 12.8 257 13.1
2008-06-16 08:03:08 51°10.717 2°40.907 257.8 12.7 256 13.2
2008-06-16 08:03:13 51°10.712 2°40.88 257.6 12.7 256 13.1
2008-06-16 08:03:18 51°10.708 2°40.853 257 12.8 256 13.2
2008-06-16 08:03:23 51°10.704 2°40.825 257.5 12.7 256 13.4
2008-06-16 08:03:28 51°10.699 2°40.798 256.5 12.7 255 13.3
2008-06-16 08:03:33 51°10.695 2°40.771 256.1 12.7 253 13.4
2008-06-16 08:03:38 51°10.69 2°40.744 255 12.7 254 13.4
2008-06-16 08:03:42 51°10.686 2°40.723 254.1 12.7 253 13.3
2008-06-16 08:03:48 51°10.679 2°40.691 254 12.7 253 13.4
2008-06-16 08:03:53 51°10.674 2°40.664 253.2 12.6 251 13.5
2008-06-16 08:03:58 51°10.669 2°40.638 253.1 12.7 252 13.5
2008-06-16 08:04:03 51°10.663 2°40.611 252.6 12.7 251 13.6
2008-06-16 08:04:08 51°10.658 2°40.584 252.7 12.6 253 13.6
2008-06-16 08:04:13 51°10.652 2°40.558 252.3 12.6 251 13.7
2008-06-16 08:04:18 51°10.647 2°40.531 253.3 12.6 252 13.7
2008-06-16 08:04:23 51°10.642 2°40.505 253.1 12.7 252 13.7
2008-06-16 08:04:28 51°10.637 2°40.478 254.5 12.6 255 13.8
2008-06-16 08:04:33 51°10.632 2°40.451 255.5 12.6 255 13.8
2008-06-16 08:04:38 51°10.627 2°40.424 255.9 12.6 254 13.9
2008-06-16 08:04:43 51°10.624 2°40.397 256.7 12.6 257 13.9
2008-06-16 08:04:48 51°10.619 2°40.37 256.8 12.6 255 14
2008-06-16 08:04:53 51°10.615 2°40.343 256.4 12.6 255 14
2008-06-16 08:04:58 51°10.61 2°40.316 256.2 12.6 256 14
2008-06-16 08:05:03 51°10.606 2°40.29 256.3 12.5 255 14.1
2008-06-16 08:05:08 51°10.601 2°40.263 256.7 12.6 256 14.1
2008-06-16 08:05:13 51°10.598 2°40.236 257.1 12.6 257 14.1
2008-06-16 08:05:18 51°10.593 2°40.209 256.9 12.6 255 14.2
2008-06-16 08:05:23 51°10.589 2°40.182 257.6 12.6 257 14.3
2008-06-16 08:05:28 51°10.585 2°40.155 257.3 12.5 255 14.3
2008-06-16 08:05:33 51°10.581 2°40.128 256.6 12.6 256 14.3
2008-06-16 08:05:38 51°10.576 2°40.101 256.7 12.6 255 14.3
2008-06-16 08:05:43 51°10.571 2°40.074 255.3 12.6 254 14.4
2008-06-16 08:05:48 51°10.567 2°40.048 255 12.6 254 14.3
2008-06-16 08:05:53 51°10.561 2°40.021 254.2 12.5 253 14.5
2008-06-16 08:05:58 51°10.556 2°39.995 253.9 12.5 253 14.5
2008-06-16 08:06:03 51°10.551 2°39.968 253.6 12.6 252 14.5
2008-06-16 08:06:08 51°10.546 2°39.942 253.2 12.5 254 14.6
2008-06-16 08:06:13 51°10.541 2°39.915 252.9 12.6 252 14.8
2008-06-16 08:06:18 51°10.536 2°39.889 253.6 12.5 254 14.8
2008-06-16 08:06:23 51°10.53 2°39.863 252.7 12.6 251 14.8
2008-06-16 08:06:28 51°10.526 2°39.836 253.2 12.6 255 14.9
2008-06-16 08:06:33 51°10.521 2°39.809 254.3 12.6 254 14.9
2008-06-16 08:06:38 51°10.517 2°39.782 254.9 12.6 255 14.9
2008-06-16 08:06:43 51°10.512 2°39.755 254.9 12.6 253 15
2008-06-16 08:06:48 51°10.507 2°39.729 254.4 12.6 254 15.1
2008-06-16 08:06:53 51°10.502 2°39.702 254.2 12.6 253 15.3
2008-06-16 08:06:58 51°10.497 2°39.675 253.5 12.6 253 15.1
2008-06-16 08:07:03 51°10.492 2°39.649 253.5 12.6 254 15.1
2008-06-16 08:07:08 51°10.487 2°39.622 253.6 12.6 253 15.1
2008-06-16 08:07:13 51°10.482 2°39.595 253.9 12.6 253 15.3
2008-06-16 08:07:18 51°10.477 2°39.569 254.4 12.6 255 15.2
2008-06-16 08:07:23 51°10.472 2°39.542 253.9 12.7 252 15.2
2008-06-16 08:07:28 51°10.467 2°39.516 254.8 12.5 253 15.3
2008-06-16 08:07:33 51°10.46 2°39.49 251 12.5 248 15.2
2008-06-16 08:07:38 51°10.452 2°39.465 245.3 12.5 243 15.2
2008-06-16 08:07:42 51°10.445 2°39.446 242.2 12.5 242 15.4
2008-06-16 08:07:48 51°10.435 2°39.417 241.6 12.6 242 15.6
2008-06-16 08:07:53 51°10.427 2°39.393 240.8 12.5 241 15.5
2008-06-16 08:07:58 51°10.419 2°39.367 241.8 12.7 245 15.4
2008-06-16 08:08:03 51°10.412 2°39.342 245.1 12.6 247 15.4
2008-06-16 08:08:08 51°10.405 2°39.316 246 12.6 246 15.6
2008-06-16 08:08:13 51°10.4 2°39.29 247.6 12.7 250 15.5
2008-06-16 08:08:18 51°10.394 2°39.264 251 12.6 251 15.5
2008-06-16 08:08:22 51°10.389 2°39.242 251.5 12.7 252 15.5
2008-06-16 08:08:28 51°10.385 2°39.21 254.7 12.7 256 15.5
2008-06-16 08:08:33 51°10.38 2°39.183 255.4 12.7 253 15.7
2008-06-16 08:08:38 51°10.376 2°39.155 256.8 12.7 258 15.7
2008-06-16 08:08:43 51°10.372 2°39.128 257.7 12.7 257 15.8
2008-06-16 08:08:48 51°10.369 2°39.101 258.3 12.7 258 15.9
2008-06-16 08:08:53 51°10.365 2°39.073 259.3 12.7 258 16
2008-06-16 08:08:58 51°10.362 2°39.046 259 12.7 259 15.9
2008-06-16 08:09:03 51°10.358 2°39.018 258.6 12.8 257 15.9
2008-06-16 08:09:08 51°10.355 2°38.991 259.7 12.7 260 16.3
2008-06-16 08:09:13 51°10.351 2°38.964 259.3 12.7 257 16.5
2008-06-16 08:09:18 51°10.348 2°38.936 259.1 12.7 259 16.5
2008-06-16 08:09:23 51°10.344 2°38.908 259.6 12.7 258 16.6
2008-06-16 08:09:28 51°10.341 2°38.881 259 12.7 259 16.6
2008-06-16 08:09:33 51°10.337 2°38.854 258.4 12.7 257 16.7
2008-06-16 08:09:38 51°10.333 2°38.826 258.2 12.7 257 16.7
2008-06-16 08:09:43 51°10.329 2°38.799 256.6 12.7 255 16.8
2008-06-16 08:09:48 51°10.325 2°38.772 256.8 12.7 257 16.9
2008-06-16 08:09:53 51°10.32 2°38.745 256.2 12.7 255 16.8
2008-06-16 08:09:58 51°10.317 2°38.717 256.1 12.7 258 16.9
2008-06-16 08:10:03 51°10.312 2°38.691 256.4 12.6 255 16.9
2008-06-16 08:10:08 51°10.307 2°38.664 255.4 12.7 255 16.9
2008-06-16 08:10:13 51°10.304 2°38.636 256.2 12.7 258 16.6
2008-06-16 08:10:18 51°10.299 2°38.609 255.4 12.7 255 17
2008-06-16 08:10:22 51°10.296 2°38.587 256.1 12.7 258 16.5
2008-06-16 08:10:28 51°10.291 2°38.555 256.6 12.6 256 16.4
2008-06-16 08:10:33 51°10.288 2°38.528 256.4 12.6 258 16.5
2008-06-16 08:10:38 51°10.283 2°38.501 256.1 12.7 255 16.4
2008-06-16 08:10:43 51°10.28 2°38.473 255.9 12.7 258 16.4
2008-06-16 08:10:48 51°10.275 2°38.447 256.2 12.5 257 16.4
2008-06-16 08:10:53 51°10.271 2°38.42 255.7 12.6 256 16.5
2008-06-16 08:10:58 51°10.267 2°38.393 256.2 12.5 257 16.6
2008-06-16 08:11:03 51°10.263 2°38.366 255.9 12.5 255 16.7
2008-06-16 08:11:08 51°10.259 2°38.339 255 12.6 256 16.7
2008-06-16 08:11:13 51°10.254 2°38.313 254.5 12.5 254 16.9
2008-06-16 08:11:18 51°10.249 2°38.286 253.2 12.5 255 16.9
2008-06-16 08:11:23 51°10.244 2°38.26 253.3 12.6 253 17
2008-06-16 08:11:28 51°10.239 2°38.233 252.5 12.5 254 17.2
2008-06-16 08:11:33 51°10.234 2°38.207 252.3 12.5 252 17.1
2008-06-16 08:11:38 51°10.229 2°38.18 251.8 12.6 254 17
2008-06-16 08:11:43 51°10.224 2°38.154 252.5 12.6 253 17
2008-06-16 08:11:48 51°10.219 2°38.127 252.1 12.6 252 17
2008-06-16 08:11:53 51°10.215 2°38.1 253.6 12.5 256 17.2
2008-06-16 08:11:58 51°10.209 2°38.074 253.5 12.7 253 17.1
2008-06-16 08:12:03 51°10.206 2°38.046 255.3 12.6 259 17.2
2008-06-16 08:12:08 51°10.201 2°38.02 254.8 12.5 253 17.6
2008-06-16 08:12:13 51°10.197 2°37.993 254.5 12.7 257 17.4
2008-06-16 08:12:18 51°10.192 2°37.966 254.4 12.5 254 17.4
2008-06-16 08:12:22 51°10.189 2°37.945 254.2 12.4 256 17.4
2008-06-16 08:12:28 51°10.183 2°37.913 253.2 12.7 253 17.4
2008-06-16 08:12:33 51°10.179 2°37.886 253.5 12.6 256 17.4
2008-06-16 08:12:38 51°10.173 2°37.86 252.4 12.5 253 17.7
2008-06-16 08:12:43 51°10.169 2°37.833 252.5 12.6 255 17.7
2008-06-16 08:12:48 51°10.164 2°37.806 252.4 12.7 253 17.6
2008-06-16 08:12:53 51°10.158 2°37.78 252.2 12.6 253 17.9
2008-06-16 08:12:58 51°10.153 2°37.753 252 12.5 252 17.9
2008-06-16 08:13:03 51°10.148 2°37.727 251.6 12.6 253 17.8
2008-06-16 08:13:08 51°10.143 2°37.7 252.2 12.6 254 18
2008-06-16 08:13:13 51°10.138 2°37.673 252 12.6 252 17.8
2008-06-16 08:13:18 51°10.134 2°37.647 252.4 12.6 255 17.9
2008-06-16 08:13:23 51°10.128 2°37.62 252.1 12.6 252 18.2
2008-06-16 08:13:28 51°10.124 2°37.593 252.1 12.6 256 18.1
2008-06-16 08:13:33 51°10.118 2°37.567 252.4 12.6 252 18.3
2008-06-16 08:13:38 51°10.114 2°37.539 252.5 12.7 256 18.4
2008-06-16 08:13:43 51°10.109 2°37.513 252.7 12.6 252 18.4
2008-06-16 08:13:48 51°10.104 2°37.486 252.4 12.6 255 18.5
2008-06-16 08:13:53 51°10.099 2°37.459 252.7 12.7 253 18.4
2008-06-16 08:13:58 51°10.095 2°37.432 252.6 12.7 254 18.3
2008-06-16 08:14:03 51°10.09 2°37.405 252.8 12.7 256 18.3
2008-06-16 08:14:08 51°10.086 2°37.378 253.9 12.7 255 18.4
2008-06-16 08:14:13 51°10.082 2°37.351 254.3 12.7 256 18.4
2008-06-16 08:14:18 51°10.078 2°37.323 255.9 12.6 258 18
2008-06-16 08:14:23 51°10.074 2°37.296 254.7 12.7 255 18.3
2008-06-16 08:14:28 51°10.07 2°37.269 256.1 12.6 257 18.5
2008-06-16 08:14:33 51°10.066 2°37.242 255 12.7 255 18.3
2008-06-16 08:14:38 51°10.062 2°37.215 255.7 12.6 256 18.4
2008-06-16 08:14:43 51°10.058 2°37.187 255 12.6 256 18.2
2008-06-16 08:14:48 51°10.054 2°37.16 254.9 12.7 257 18.3
2008-06-16 08:14:53 51°10.05 2°37.133 255.4 12.7 257 18.6
2008-06-16 08:14:58 51°10.046 2°37.106 255.3 12.7 258 18.4
2008-06-16 08:15:03 51°10.042 2°37.078 255.5 12.7 257 18.5
2008-06-16 08:15:08 51°10.038 2°37.051 255.9 12.7 258 18.5
2008-06-16 08:15:13 51°10.034 2°37.024 255.8 12.7 256 18.7
2008-06-16 08:15:18 51°10.03 2°36.997 255.1 12.6 256 18.4
2008-06-16 08:15:23 51°10.026 2°36.969 254.4 12.6 256 18.3
2008-06-16 08:15:28 51°10.021 2°36.943 253.4 12.6 254 18.8
2008-06-16 08:15:33 51°10.016 2°36.916 253.1 12.6 255 18.4
2008-06-16 08:15:38 51°10.012 2°36.889 252 12.6 255 18.2
2008-06-16 08:15:43 51°10.007 2°36.862 252.3 12.7 254 18.3
2008-06-16 08:15:48 51°10.002 2°36.836 252.2 12.6 254 18.7
2008-06-16 08:15:53 51°9.997 2°36.809 251.5 12.6 254 18.6
2008-06-16 08:15:58 51°9.992 2°36.782 252.1 12.6 254 18.1
2008-06-16 08:16:03 51°9.987 2°36.755 251.5 12.6 254 18.9
2008-06-16 08:16:08 51°9.982 2°36.729 251.6 12.6 252 18.4
2008-06-16 08:16:13 51°9.978 2°36.702 252.3 12.5 255 18.4
2008-06-16 08:16:18 51°9.973 2°36.676 252.1 12.6 254 18.7
2008-06-16 08:16:23 51°9.968 2°36.649 251.8 12.7 254 18.6
2008-06-16 08:16:28 51°9.963 2°36.622 252.6 12.5 254 18.4
2008-06-16 08:16:33 51°9.958 2°36.596 251.4 12.6 253 18.7
2008-06-16 08:16:38 51°9.954 2°36.569 252.8 12.6 255 18.3
2008-06-16 08:16:43 51°9.949 2°36.542 252.5 12.6 253 18.4
2008-06-16 08:16:48 51°9.945 2°36.516 252.1 12.6 256 18.6
2008-06-16 08:16:53 51°9.939 2°36.489 251.8 12.6 252 18.5
2008-06-16 08:16:58 51°9.936 2°36.462 252.4 12.6 257 18.4
2008-06-16 08:17:03 51°9.93 2°36.435 252.6 12.5 253 18.8
2008-06-16 08:17:08 51°9.926 2°36.408 252.2 12.6 255 18.7
2008-06-16 08:17:13 51°9.921 2°36.382 252.7 12.5 254 18.5
2008-06-16 08:17:18 51°9.917 2°36.355 252 12.6 255 18.2
2008-06-16 08:17:22 51°9.913 2°36.334 252.6 12.5 256 18.4
2008-06-16 08:17:28 51°9.908 2°36.302 253.1 12.6 255 18.5
2008-06-16 08:17:33 51°9.904 2°36.275 253.5 12.6 256 18.1
2008-06-16 08:17:38 51°9.899 2°36.248 253.5 12.6 255 18.4
2008-06-16 08:17:43 51°9.895 2°36.221 253.7 12.5 256 18.8
2008-06-16 08:17:48 51°9.891 2°36.194 253.8 12.6 256 18.4
2008-06-16 08:17:53 51°9.887 2°36.167 254.2 12.5 257 18.7
2008-06-16 08:17:58 51°9.882 2°36.141 253.9 12.5 254 18.9
2008-06-16 08:18:03 51°9.878 2°36.113 253.2 12.6 256 18.7
2008-06-16 08:18:08 51°9.874 2°36.086 253.8 12.6 256 18.8
2008-06-16 08:18:13 51°9.87 2°36.06 254 12.6 256 18.9
2008-06-16 08:18:18 51°9.866 2°36.033 253.8 12.6 256 19
2008-06-16 08:18:23 51°9.861 2°36.006 253.2 12.6 254 19
2008-06-16 08:18:28 51°9.857 2°35.979 252.8 12.5 254 19
2008-06-16 08:18:33 51°9.852 2°35.953 252 12.6 254 19
2008-06-16 08:18:38 51°9.847 2°35.926 252.2 12.5 255 19.1
2008-06-16 08:18:43 51°9.842 2°35.9 251.8 12.5 254 18.9
2008-06-16 08:18:48 51°9.838 2°35.873 252.4 12.6 255 19
2008-06-16 08:18:53 51°9.833 2°35.846 252.3 12.5 253 19.1
2008-06-16 08:18:58 51°9.829 2°35.819 253 12.6 256 19.1
2008-06-16 08:19:03 51°9.825 2°35.792 253.6 12.6 256 19.2
2008-06-16 08:19:08 51°9.821 2°35.765 254.7 12.6 257 19.3
2008-06-16 08:19:13 51°9.817 2°35.738 254.7 12.6 257 19.5
2008-06-16 08:19:18 51°9.813 2°35.711 255.8 12.5 257 19.4
2008-06-16 08:19:22 51°9.81 2°35.69 255.6 12.5 257 19.4
2008-06-16 08:19:28 51°9.806 2°35.657 255.1 12.6 257 19.3
2008-06-16 08:19:33 51°9.802 2°35.63 256.3 12.5 259 19.4
2008-06-16 08:19:38 51°9.798 2°35.603 255.4 12.6 256 19.3
2008-06-16 08:19:43 51°9.795 2°35.576 255.5 12.6 258 19.3
2008-06-16 08:19:48 51°9.791 2°35.549 256.1 12.5 258 19.2
2008-06-16 08:19:53 51°9.787 2°35.522 254.9 12.6 259 19.4
2008-06-16 08:19:58 51°9.783 2°35.495 255.5 12.6 254 19.3
2008-06-16 08:20:03 51°9.779 2°35.468 253.9 12.6 257 19.3
2008-06-16 08:20:08 51°9.774 2°35.442 253.9 12.5 257 19.4
2008-06-16 08:20:13 51°9.769 2°35.415 252 12.5 254 19.3
2008-06-16 08:20:18 51°9.765 2°35.388 252.4 12.5 254 19.3
2008-06-16 08:20:23 51°9.76 2°35.362 251.8 12.4 254 19.3
2008-06-16 08:20:28 51°9.755 2°35.335 251.4 12.6 253 19.3
2008-06-16 08:20:33 51°9.751 2°35.309 252.5 12.5 257 19.4
2008-06-16 08:20:38 51°9.745 2°35.283 250.9 12.5 250 19.4
2008-06-16 08:20:43 51°9.741 2°35.256 251 12.6 255 19.7
2008-06-16 08:20:48 51°9.736 2°35.23 252.8 12.5 256 19.5
2008-06-16 08:20:53 51°9.732 2°35.203 252.4 12.4 255 19.6
2008-06-16 08:20:58 51°9.728 2°35.176 254.7 12.5 257 19.6
2008-06-16 08:21:03 51°9.724 2°35.149 254.9 12.4 257 19.6
2008-06-16 08:21:08 51°9.721 2°35.122 256.3 12.4 258 19.6
2008-06-16 08:21:13 51°9.718 2°35.095 256.8 12.6 260 19.6
2008-06-16 08:21:18 51°9.714 2°35.068 256.5 12.5 257 19.6
2008-06-16 08:21:22 51°9.711 2°35.047 256.3 12.4 259 19.6
2008-06-16 08:21:28 51°9.706 2°35.014 255.6 12.6 256 19.4
2008-06-16 08:21:33 51°9.703 2°34.987 255.5 12.5 259 19.2
2008-06-16 08:21:38 51°9.699 2°34.961 255.4 12.3 257 19.2
2008-06-16 08:21:43 51°9.696 2°34.934 255.2 12.6 257 19.4
2008-06-16 08:21:47 51°9.693 2°34.912 256.1 12.5 258 19.3
2008-06-16 08:21:53 51°9.687 2°34.881 254.8 12.4 255 19
2008-06-16 08:21:58 51°9.684 2°34.853 255.1 12.5 258 19.1
2008-06-16 08:22:03 51°9.68 2°34.827 255.4 12.5 256 19
2008-06-16 08:22:08 51°9.676 2°34.8 255 12.5 256 18.9
2008-06-16 08:22:13 51°9.672 2°34.773 255.9 12.4 257 18.8
2008-06-16 08:22:18 51°9.668 2°34.746 255.3 12.4 258 18.7
2008-06-16 08:22:23 51°9.664 2°34.719 255.8 12.5 257 18.5
2008-06-16 08:22:28 51°9.661 2°34.693 256.6 12.4 259 18.6
2008-06-16 08:22:33 51°9.657 2°34.666 257.3 12.4 258 18.6
2008-06-16 08:22:38 51°9.653 2°34.639 257.1 12.5 258 18.5
2008-06-16 08:22:43 51°9.649 2°34.612 256.4 12.5 257 18.5
2008-06-16 08:22:48 51°9.645 2°34.586 255.8 12.3 257 18.1
2008-06-16 08:22:53 51°9.641 2°34.559 254.6 12.5 255 18.1
2008-06-16 08:22:58 51°9.636 2°34.533 254.3 12.5 254 17.7
2008-06-16 08:23:03 51°9.631 2°34.507 253 12.3 253 17.9
2008-06-16 08:23:08 51°9.626 2°34.481 251.7 12.3 252 17.5
2008-06-16 08:23:13 51°9.621 2°34.455 251.8 12.5 254 17.7
2008-06-16 08:23:18 51°9.616 2°34.429 251.2 12.3 252 17.5
2008-06-16 08:23:23 51°9.61 2°34.403 250.8 12.3 252 17.5
2008-06-16 08:23:28 51°9.605 2°34.377 251 12.3 252 16.9
2008-06-16 08:23:33 51°9.6 2°34.351 251 12.3 253 17.1
2008-06-16 08:23:38 51°9.595 2°34.325 250.9 12.3 252 17.1
2008-06-16 08:23:43 51°9.59 2°34.299 251.2 12.3 254 16.7
2008-06-16 08:23:48 51°9.585 2°34.273 251.8 12.3 254 17
2008-06-16 08:23:53 51°9.581 2°34.247 251.7 12.4 254 16.3
2008-06-16 08:23:58 51°9.576 2°34.221 252.1 12.2 254 16.8
2008-06-16 08:24:02 51°9.572 2°34.2 251.4 12.1 253 16.5
2008-06-16 08:24:08 51°9.568 2°34.172 251.4 11.4 254 16.6
2008-06-16 08:24:13 51°9.564 2°34.15 252.3 10.4 254 16.5
2008-06-16 08:24:18 51°9.561 2°34.13 253.2 9.6 256 16.1
2008-06-16 08:24:23 51°9.557 2°34.111 253.2 9.2 254 16.1
2008-06-16 08:24:28 51°9.554 2°34.093 253.9 8.6 255 16
2008-06-16 08:24:33 51°9.551 2°34.075 253.2 8.1 255 16
2008-06-16 08:24:38 51°9.548 2°34.06 251.3 7.3 250 16
2008-06-16 08:24:43 51°9.545 2°34.046 248.4 6.9 251 16.3
2008-06-16 08:24:48 51°9.541 2°34.034 245.4 6.5 248 16.1
2008-06-16 08:24:53 51°9.537 2°34.022 242.2 5.9 244 16.1
2008-06-16 08:24:58 51°9.534 2°34.012 238.1 5.4 239 16.2
2008-06-16 08:25:03 51°9.53 2°34.002 234.9 5.1 239 15.9
2008-06-16 08:25:08 51°9.526 2°33.994 232.1 4.9 233 15.9
2008-06-16 08:25:13 51°9.522 2°33.986 228.9 4.7 233 15.8
2008-06-16 08:25:18 51°9.518 2°33.978 224.1 4.5 226 15.8
2008-06-16 08:25:23 51°9.513 2°33.972 218.8 4.4 222 16
2008-06-16 08:25:28 51°9.508 2°33.967 212.8 4.3 218 16.2
2008-06-16 08:25:33 51°9.503 2°33.962 207 4 211 16.3
2008-06-16 08:25:38 51°9.498 2°33.959 201 3.9 206 16.5
2008-06-16 08:25:43 51°9.494 2°33.957 195.6 3.5 196 16.5
2008-06-16 08:25:48 51°9.49 2°33.954 191.1 3.3 200 16.4
2008-06-16 08:25:53 51°9.486 2°33.953 188.3 3.1 193 16.8
2008-06-16 08:25:58 51°9.482 2°33.95 186.7 2.9 199 16.8
2008-06-16 08:26:02 51°9.479 2°33.95 184.5 2.6 187 16.7
2008-06-16 08:26:08 51°9.475 2°33.948 182.6 2.3 192 17
2008-06-16 08:26:13 51°9.472 2°33.948 179.4 2 184 17.2
2008-06-16 08:26:18 51°9.47 2°33.948 176.1 1.7 188 17.2
2008-06-16 08:26:23 51°9.468 2°33.947 173.4 1.5 185 17.1
2008-06-16 08:26:28 51°9.467 2°33.947 169.8 1.2 186 17
2008-06-16 08:26:33 51°9.465 2°33.947 167.1 0.9 179 17.2
2008-06-16 08:26:38 51°9.465 2°33.946 164.2 0.6 205 17.4
2008-06-16 08:26:43 51°9.465 2°33.946 161.2 0.3 219 17.4
2008-06-16 08:26:48 51°9.464 2°33.945 159 0.4 214 17.3
2008-06-16 08:26:53 51°9.464 2°33.945 157.3 0.4 231 17.2
2008-06-16 08:26:58 51°9.463 2°33.944 155.7 0.2 220 17.3
2008-06-16 08:27:03 51°9.463 2°33.944 154.3 0.3 229 17.2
2008-06-16 08:27:08 51°9.463 2°33.944 152.9 0.2 216 17.3
2008-06-16 08:27:13 51°9.462 2°33.943 152 0.4 218 17.3
2008-06-16 08:27:18 51°9.462 2°33.942 150.8 0.2 223 17.4
2008-06-16 08:27:23 51°9.462 2°33.942 149.9 0.4 229 17.4
2008-06-16 08:27:28 51°9.462 2°33.941 148.7 0.2 204 17.5
2008-06-16 08:27:33 51°9.462 2°33.941 148.3 0.2 223 17.4
2008-06-16 08:27:38 51°9.461 2°33.941 147.4 0.1 220 17.5
2008-06-16 08:27:43 51°9.461 2°33.94 146.5 0.4 238 17.6
2008-06-16 08:27:48 51°9.461 2°33.939 145.8 0.2 254 17.6
2008-06-16 08:27:53 51°9.461 2°33.939 145.5 0.4 244 17.6
2008-06-16 08:27:58 51°9.461 2°33.939 144.5 0.1 243 17.6
2008-06-16 08:28:03 51°9.46 2°33.938 144.3 0.3 239 17.6
2008-06-16 08:28:08 51°9.46 2°33.938 143.7 0.2 240 17.5
2008-06-16 08:28:13 51°9.46 2°33.938 143.5 0.2 249 17.4
2008-06-16 08:28:18 51°9.46 2°33.937 143 0.4 241 17.4
2008-06-16 08:28:23 51°9.46 2°33.937 142.8 0.1 276 17.2
2008-06-16 08:28:28 51°9.46 2°33.936 142.7 0.2 237 17.2
2008-06-16 08:28:33 51°9.46 2°33.936 142.4 0.2 247 17.2
2008-06-16 08:28:38 51°9.459 2°33.935 142.3 0.3 247 17.2
2008-06-16 08:28:43 51°9.459 2°33.935 142.2 0.1 262 17.2
2008-06-16 08:28:48 51°9.459 2°33.935 142.2 0.3 238 17.3
2008-06-16 08:28:53 51°9.459 2°33.934 142.2 0.3 249 17.4
2008-06-16 08:28:58 51°9.459 2°33.934 142.2 0.2 249 17.4
2008-06-16 08:29:03 51°9.459 2°33.933 142.2 0.2 252 17.4
2008-06-16 08:29:08 51°9.459 2°33.933 142.5 0.1 262 17.5